createdAt,value
2022-08-23T00:01:43.540Z,20.60
2022-08-23T00:04:14.876Z,20.70
2022-08-23T00:06:48.133Z,20.60
2022-08-23T00:09:23.002Z,20.60
2022-08-23T00:11:53.290Z,20.60
2022-08-23T00:14:24.889Z,20.60
2022-08-23T00:16:53.970Z,20.50
2022-08-23T00:19:23.698Z,20.60
2022-08-23T00:21:54.735Z,20.50
2022-08-23T00:24:25.450Z,20.50
2022-08-23T00:26:56.867Z,20.50
2022-08-23T00:29:27.956Z,20.40
2022-08-23T00:31:56.129Z,20.40
2022-08-23T00:34:24.611Z,20.40
2022-08-23T00:36:53.279Z,20.40
2022-08-23T00:39:23.348Z,20.40
2022-08-23T00:41:52.216Z,20.40
2022-08-23T00:44:51.210Z,20.40
2022-08-23T00:47:37.260Z,20.40
2022-08-23T00:50:23.472Z,20.40
2022-08-23T00:52:58.274Z,20.50
2022-08-23T00:55:29.057Z,20.40
2022-08-23T00:57:58.001Z,20.40
2022-08-23T01:00:26.791Z,20.40
2022-08-23T01:02:55.592Z,20.50
2022-08-23T01:05:29.261Z,20.40
2022-08-23T01:08:01.056Z,20.40
2022-08-23T01:10:38.693Z,20.40
2022-08-23T01:13:18.127Z,20.40
2022-08-23T01:15:49.884Z,20.40
2022-08-23T01:18:22.896Z,20.40
2022-08-23T01:20:57.123Z,20.40
2022-08-23T01:23:37.501Z,20.40
2022-08-23T01:26:08.240Z,20.30
2022-08-23T01:28:40.797Z,20.30
2022-08-23T01:31:16.274Z,20.30
2022-08-23T01:33:47.282Z,20.40
2022-08-23T01:36:17.126Z,20.30
2022-08-23T01:38:49.861Z,20.30
2022-08-23T01:41:17.983Z,20.30
2022-08-23T01:43:46.273Z,20.30
2022-08-23T01:46:17.990Z,20.30
2022-08-23T01:48:46.810Z,20.30
2022-08-23T01:51:16.512Z,20.30
2022-08-23T01:53:48.297Z,20.20
2022-08-23T01:56:19.974Z,20.30
2022-08-23T01:58:56.126Z,20.20
2022-08-23T02:01:24.127Z,20.20
2022-08-23T02:04:04.937Z,20.20
2022-08-23T02:06:33.879Z,20.20
2022-08-23T02:09:03.907Z,20.20
2022-08-23T02:11:34.850Z,20.20
2022-08-23T02:14:05.550Z,20.20
2022-08-23T02:16:35.819Z,20.20
2022-08-23T02:19:06.076Z,20.10
2022-08-23T02:21:35.112Z,20.10
2022-08-23T02:24:07.998Z,20.10
2022-08-23T02:26:37.167Z,20.10
2022-08-23T02:29:05.943Z,20.10
2022-08-23T02:31:34.087Z,20.10
2022-08-23T02:36:49.528Z,20.00
2022-08-23T02:39:19.613Z,20.00
2022-08-23T02:41:47.832Z,20.00
2022-08-23T02:44:15.711Z,20.00
2022-08-23T02:46:44.256Z,20.00
2022-08-23T02:49:12.654Z,20.00
2022-08-23T02:51:41.444Z,20.00
2022-08-23T02:54:11.485Z,20.00
2022-08-23T02:56:41.056Z,20.00
2022-08-23T02:59:08.929Z,20.00
2022-08-23T03:01:40.224Z,20.00
2022-08-23T03:04:10.386Z,20.00
2022-08-23T03:06:39.405Z,20.00
2022-08-23T03:09:08.207Z,20.00
2022-08-23T03:11:36.573Z,19.90
2022-08-23T03:14:05.917Z,19.90
2022-08-23T03:16:33.726Z,19.90
2022-08-23T03:19:02.271Z,19.90
2022-08-23T03:21:30.075Z,19.90
2022-08-23T03:24:00.725Z,19.80
2022-08-23T03:26:28.663Z,19.80
2022-08-23T03:28:56.742Z,19.80
2022-08-23T03:31:25.985Z,19.80
2022-08-23T03:33:58.513Z,19.80
2022-08-23T03:36:27.856Z,19.70
2022-08-23T03:38:56.762Z,19.70
2022-08-23T03:41:25.129Z,19.70
2022-08-23T03:43:53.089Z,19.70
2022-08-23T03:46:24.041Z,19.60
2022-08-23T03:48:55.534Z,19.60
2022-08-23T03:51:24.159Z,19.60
2022-08-23T03:53:52.813Z,19.60
2022-08-23T03:56:25.148Z,19.60
2022-08-23T03:58:53.659Z,19.60
2022-08-23T04:01:25.214Z,19.50
2022-08-23T04:03:59.897Z,19.50
2022-08-23T04:06:28.401Z,19.50
2022-08-23T04:08:57.234Z,19.50
2022-08-23T04:11:27.571Z,19.40
2022-08-23T04:13:56.084Z,19.40
2022-08-23T04:16:23.981Z,19.40
2022-08-23T04:18:51.789Z,19.40
2022-08-23T04:21:23.554Z,19.40
2022-08-23T04:23:52.821Z,19.40
2022-08-23T04:26:23.060Z,19.30
2022-08-23T04:28:54.007Z,19.30
2022-08-23T04:31:22.700Z,19.30
2022-08-23T04:33:52.313Z,19.20
2022-08-23T04:36:23.389Z,19.20
2022-08-23T04:38:51.818Z,19.10
2022-08-23T04:41:37.833Z,19.10
2022-08-23T04:44:06.243Z,19.00
2022-08-23T04:46:34.165Z,19.00
2022-08-23T04:49:02.441Z,18.90
2022-08-23T04:51:31.609Z,18.90
2022-08-23T04:53:59.619Z,18.80
2022-08-23T04:56:28.349Z,18.80
2022-08-23T04:58:56.413Z,18.80
2022-08-23T05:01:28.166Z,18.80
2022-08-23T05:04:00.433Z,18.70
2022-08-23T05:06:31.170Z,18.70
2022-08-23T05:09:05.437Z,18.70
2022-08-23T05:11:35.277Z,18.60
2022-08-23T05:14:03.162Z,18.60
2022-08-23T05:16:31.168Z,18.60
2022-08-23T05:19:03.031Z,18.60
2022-08-23T05:21:31.099Z,18.60
2022-08-23T05:24:13.552Z,18.60
2022-08-23T05:26:42.518Z,18.60
2022-08-23T05:29:12.276Z,18.70
2022-08-23T05:31:49.899Z,18.70
2022-08-23T05:34:26.223Z,18.70
2022-08-23T05:36:55.636Z,18.70
2022-08-23T05:39:33.702Z,18.70
2022-08-23T05:42:06.125Z,18.70
2022-08-23T05:44:36.600Z,18.80
2022-08-23T05:47:12.496Z,18.80
2022-08-23T05:49:43.215Z,18.80
2022-08-23T05:52:18.559Z,18.80
2022-08-23T05:54:47.725Z,18.80
2022-08-23T05:57:15.641Z,18.80
2022-08-23T05:59:43.474Z,18.80
2022-08-23T06:02:11.676Z,18.80
2022-08-23T06:04:39.483Z,18.90
2022-08-23T06:07:07.480Z,19.00
2022-08-23T06:09:35.538Z,19.00
2022-08-23T06:12:05.170Z,19.10
2022-08-23T06:14:32.964Z,19.20
2022-08-23T06:17:01.143Z,19.40
2022-08-23T06:19:29.056Z,19.50
2022-08-23T06:21:56.922Z,19.60
2022-08-23T06:24:25.657Z,19.80
2022-08-23T06:26:53.941Z,20.00
2022-08-23T06:29:23.176Z,20.20
2022-08-23T06:31:52.852Z,20.40
2022-08-23T06:34:23.288Z,20.50
2022-08-23T06:36:53.455Z,20.60
2022-08-23T06:39:23.322Z,20.80
2022-08-23T06:41:52.062Z,20.90
2022-08-23T06:44:21.123Z,20.90
2022-08-23T06:46:50.359Z,21.00
2022-08-23T06:49:18.391Z,21.00
2022-08-23T06:51:50.358Z,21.00
2022-08-23T06:54:22.665Z,21.10
2022-08-23T06:56:54.631Z,21.10
2022-08-23T06:59:23.222Z,21.10
2022-08-23T07:01:55.122Z,21.20
2022-08-23T07:04:25.705Z,21.20
2022-08-23T07:06:53.610Z,21.20
2022-08-23T07:09:21.425Z,21.20
2022-08-23T07:11:49.322Z,21.30
2022-08-23T07:14:19.459Z,21.30
2022-08-23T07:16:49.854Z,21.40
2022-08-23T07:19:20.848Z,21.40
2022-08-23T07:21:49.867Z,21.50
2022-08-23T07:24:18.679Z,21.50
2022-08-23T07:26:47.757Z,21.50
2022-08-23T07:29:17.441Z,21.60
2022-08-23T07:31:47.993Z,21.60
2022-08-23T07:34:19.311Z,21.60
2022-08-23T07:36:49.951Z,21.70
2022-08-23T07:39:18.677Z,21.70
2022-08-23T07:41:46.987Z,21.80
2022-08-23T07:44:18.180Z,21.80
2022-08-23T07:46:49.027Z,21.90
2022-08-23T07:49:17.611Z,21.90
2022-08-23T07:51:49.135Z,22.00
2022-08-23T07:54:18.130Z,22.00
2022-08-23T07:56:46.682Z,22.10
2022-08-23T07:59:15.442Z,22.10
2022-08-23T08:01:44.556Z,22.20
2022-08-23T08:04:12.840Z,22.30
2022-08-23T08:06:42.916Z,22.30
2022-08-23T08:09:13.639Z,22.40
2022-08-23T08:11:44.370Z,22.50
2022-08-23T08:14:12.939Z,22.50
2022-08-23T08:16:44.008Z,22.60
2022-08-23T08:19:15.268Z,22.60
2022-08-23T08:21:47.104Z,22.70
2022-08-23T08:24:17.972Z,22.70
2022-08-23T08:26:47.014Z,22.70
2022-08-23T08:29:15.520Z,22.80
2022-08-23T08:31:54.116Z,22.80
2022-08-23T08:34:22.615Z,22.90
2022-08-23T08:36:53.719Z,23.00
2022-08-23T08:39:25.800Z,23.00
2022-08-23T08:42:09.600Z,23.10
2022-08-23T08:44:42.252Z,23.10
2022-08-23T08:47:15.389Z,23.20
2022-08-23T08:49:48.650Z,23.30
2022-08-23T08:52:21.149Z,23.30
2022-08-23T08:54:53.261Z,23.30
2022-08-23T08:57:27.418Z,23.40
2022-08-23T09:00:03.966Z,23.50
2022-08-23T09:02:34.870Z,23.50
2022-08-23T09:05:06.758Z,23.50
2022-08-23T09:07:47.360Z,23.60
2022-08-23T09:10:34.907Z,23.70
2022-08-23T09:13:32.714Z,23.70
2022-08-23T09:16:12.032Z,23.80
2022-08-23T09:18:40.127Z,23.90
2022-08-23T09:21:12.067Z,24.00
2022-08-23T09:23:42.884Z,24.00
2022-08-23T09:26:24.298Z,24.00
2022-08-23T09:28:56.195Z,24.10
2022-08-23T09:31:45.396Z,24.20
2022-08-23T09:34:19.628Z,24.20
2022-08-23T09:36:49.013Z,24.30
2022-08-23T09:39:30.724Z,24.40
2022-08-23T09:42:01.239Z,24.40
2022-08-23T09:44:37.284Z,24.50
2022-08-23T09:47:08.782Z,24.50
2022-08-23T09:49:37.200Z,24.60
2022-08-23T09:52:22.249Z,24.60
2022-08-23T09:55:27.616Z,24.70
2022-08-23T09:57:57.771Z,24.80
2022-08-23T10:00:28.869Z,24.90
2022-08-23T10:03:22.515Z,25.00
2022-08-23T10:05:53.360Z,25.00
2022-08-23T10:08:27.420Z,25.10
2022-08-23T10:11:03.645Z,25.20
2022-08-23T10:13:33.633Z,25.30
2022-08-23T10:16:11.817Z,25.30
2022-08-23T10:18:54.390Z,25.30
2022-08-23T10:21:41.804Z,25.40
2022-08-23T10:24:18.650Z,25.40
2022-08-23T10:26:59.396Z,25.50
2022-08-23T10:29:39.146Z,25.50
2022-08-23T10:32:18.703Z,25.60
2022-08-23T10:35:00.950Z,25.60
2022-08-23T10:37:43.214Z,25.60
2022-08-23T10:40:19.508Z,25.70
2022-08-23T10:42:58.684Z,25.80
2022-08-23T10:45:29.154Z,25.90
2022-08-23T10:48:09.072Z,25.90
2022-08-23T10:50:52.065Z,26.00
2022-08-23T10:53:28.372Z,26.00
2022-08-23T10:56:07.949Z,26.10
2022-08-23T10:58:41.453Z,26.10
2022-08-23T11:01:11.824Z,26.10
2022-08-23T11:03:48.185Z,26.20
2022-08-23T11:06:44.792Z,26.20
2022-08-23T11:09:32.823Z,26.20
2022-08-23T11:12:14.717Z,26.20
2022-08-23T11:14:47.013Z,26.20
2022-08-23T11:17:28.803Z,26.30
2022-08-23T11:19:59.081Z,26.40
2022-08-23T11:22:31.917Z,26.40
2022-08-23T11:25:04.205Z,26.50
2022-08-23T11:27:37.277Z,26.50
2022-08-23T11:30:45.328Z,26.60
2022-08-23T11:33:23.750Z,26.60
2022-08-23T11:35:53.938Z,26.70
2022-08-23T11:38:57.077Z,26.80
2022-08-23T11:41:32.747Z,26.80
2022-08-23T11:44:24.037Z,27.00
2022-08-23T11:47:04.447Z,27.00
2022-08-23T11:49:48.626Z,27.00
2022-08-23T11:52:47.356Z,27.00
2022-08-23T11:55:42.306Z,27.00
2022-08-23T11:58:23.751Z,27.10
2022-08-23T12:01:31.641Z,27.10
2022-08-23T12:04:08.428Z,27.20
2022-08-23T12:06:42.492Z,27.20
2022-08-23T12:09:56.737Z,27.30
2022-08-23T12:12:32.466Z,27.30
2022-08-23T12:15:08.564Z,27.40
2022-08-23T12:17:57.157Z,27.40
2022-08-23T12:20:32.368Z,27.40
2022-08-23T12:23:18.532Z,27.40
2022-08-23T12:25:46.546Z,27.50
2022-08-23T12:28:38.071Z,27.50
2022-08-23T12:31:18.823Z,27.50
2022-08-23T12:34:09.693Z,27.50
2022-08-23T12:36:45.007Z,27.50
2022-08-23T12:39:24.641Z,27.60
2022-08-23T12:41:59.026Z,27.60
2022-08-23T12:44:28.733Z,27.60
2022-08-23T12:46:58.926Z,27.60
2022-08-23T12:49:30.485Z,27.60
2022-08-23T12:52:02.378Z,27.70
2022-08-23T12:54:40.154Z,27.70
2022-08-23T12:57:12.952Z,27.70
2022-08-23T12:59:46.651Z,27.80
2022-08-23T13:02:26.009Z,27.80
2022-08-23T13:04:57.090Z,27.80
2022-08-23T13:07:26.705Z,27.80
2022-08-23T13:09:56.657Z,27.80
2022-08-23T13:12:28.529Z,27.90
2022-08-23T13:15:03.060Z,27.80
2022-08-23T13:17:39.870Z,27.90
2022-08-23T13:20:28.736Z,27.90
2022-08-23T13:23:03.116Z,28.00
2022-08-23T13:25:33.710Z,28.00
2022-08-23T13:28:06.367Z,28.00
2022-08-23T13:30:37.177Z,28.10
2022-08-23T13:33:23.356Z,28.20
2022-08-23T13:35:53.540Z,28.10
2022-08-23T13:38:28.167Z,28.20
2022-08-23T13:41:22.369Z,28.20
2022-08-23T13:43:52.490Z,28.20
2022-08-23T13:46:23.172Z,28.20
2022-08-23T13:48:59.246Z,28.30
2022-08-23T13:51:31.679Z,28.20
2022-08-23T13:54:06.363Z,28.30
2022-08-23T13:56:39.242Z,28.30
2022-08-23T13:59:20.465Z,28.30
2022-08-23T14:01:48.723Z,28.30
2022-08-23T14:04:18.016Z,28.30
2022-08-23T14:06:49.032Z,28.30
2022-08-23T14:09:17.753Z,28.30
2022-08-23T14:11:48.016Z,28.30
2022-08-23T14:14:16.252Z,28.30
2022-08-23T14:16:44.249Z,28.40
2022-08-23T14:19:54.353Z,28.40
2022-08-23T14:22:03.050Z,28.40
2022-08-23T14:24:33.803Z,28.40
2022-08-23T14:27:01.971Z,28.30
2022-08-23T14:29:30.353Z,28.30
2022-08-23T14:32:00.084Z,28.20
2022-08-23T14:38:03.734Z,28.30
2022-08-23T14:40:32.025Z,28.30
2022-08-23T14:43:05.442Z,28.20
2022-08-23T14:45:35.846Z,28.30
2022-08-23T14:48:06.400Z,28.20
2022-08-23T14:50:41.779Z,28.30
2022-08-23T14:53:11.868Z,28.30
2022-08-23T14:55:44.222Z,28.20
2022-08-23T14:58:17.221Z,28.20
2022-08-23T15:00:46.697Z,28.10
2022-08-23T15:03:19.450Z,28.10
2022-08-23T15:05:49.944Z,28.00
2022-08-23T15:08:21.199Z,28.00
2022-08-23T15:14:00.039Z,27.90
2022-08-23T15:16:30.764Z,27.90
2022-08-23T15:19:00.864Z,27.80
2022-08-23T15:21:29.068Z,27.80
2022-08-23T15:24:00.867Z,27.70
2022-08-23T15:26:31.204Z,27.80
2022-08-23T15:29:01.773Z,27.70
2022-08-23T15:31:30.124Z,27.70
2022-08-23T15:33:58.158Z,27.70
2022-08-23T15:36:26.478Z,27.60
2022-08-23T15:38:54.475Z,27.60
2022-08-23T15:41:28.198Z,27.50
2022-08-23T15:43:56.109Z,27.50
2022-08-23T15:46:25.286Z,27.50
2022-08-23T15:48:56.975Z,27.50
2022-08-23T15:51:27.366Z,27.40
2022-08-23T15:53:56.565Z,27.50
2022-08-23T15:56:31.359Z,27.40
2022-08-23T15:58:59.679Z,27.40
2022-08-23T16:01:33.639Z,27.40
2022-08-23T16:04:02.340Z,27.40
2022-08-23T16:06:56.795Z,27.40
2022-08-23T16:09:25.599Z,27.30
2022-08-23T16:11:59.642Z,27.30
2022-08-23T16:14:28.263Z,27.30
2022-08-23T16:16:56.152Z,27.30
2022-08-23T16:19:24.366Z,27.30
2022-08-23T16:21:55.004Z,27.30
2022-08-23T16:24:24.785Z,27.20
2022-08-23T16:26:54.666Z,27.20
2022-08-23T16:29:23.938Z,27.20
2022-08-23T16:31:51.967Z,27.20
2022-08-23T16:34:25.163Z,27.10
2022-08-23T16:36:57.784Z,27.10
2022-08-23T16:39:26.983Z,27.00
2022-08-23T16:41:57.145Z,27.00
2022-08-23T16:44:26.488Z,27.00
2022-08-23T16:46:54.514Z,27.00
2022-08-23T16:49:27.817Z,27.00
2022-08-23T16:51:56.065Z,26.90
2022-08-23T16:54:24.124Z,26.90
2022-08-23T16:56:51.997Z,26.80
2022-08-23T16:59:23.063Z,26.80
2022-08-23T17:02:01.525Z,26.80
2022-08-23T17:04:38.725Z,26.80
2022-08-23T17:07:07.437Z,26.70
2022-08-23T17:09:38.459Z,26.70
2022-08-23T17:12:06.823Z,26.70
2022-08-23T17:14:36.101Z,26.60
2022-08-23T17:17:16.589Z,26.60
2022-08-23T17:19:45.068Z,26.60
2022-08-23T17:22:13.706Z,26.50
2022-08-23T17:24:41.775Z,26.50
2022-08-23T17:27:09.642Z,26.40
2022-08-23T17:29:48.251Z,26.40
2022-08-23T17:32:19.513Z,26.30
2022-08-23T17:34:47.397Z,26.30
2022-08-23T17:37:17.553Z,26.20
2022-08-23T17:39:45.526Z,26.20
2022-08-23T17:42:15.869Z,26.20
2022-08-23T17:44:43.863Z,26.10
2022-08-23T17:47:16.648Z,26.00
2022-08-23T17:49:45.281Z,26.00
2022-08-23T17:52:15.660Z,25.90
2022-08-23T17:54:44.423Z,25.90
2022-08-23T17:57:13.227Z,25.80
2022-08-23T17:59:41.430Z,25.80
2022-08-23T18:02:09.275Z,25.70
2022-08-23T18:04:38.727Z,25.60
2022-08-23T18:07:07.382Z,25.50
2022-08-23T18:09:38.895Z,25.50
2022-08-23T18:12:11.365Z,25.40
2022-08-23T18:14:39.284Z,25.40
2022-08-23T18:17:07.186Z,25.30
2022-08-23T18:19:35.163Z,25.20
2022-08-23T18:22:05.206Z,25.20
2022-08-23T18:24:33.371Z,25.10
2022-08-23T18:27:21.487Z,25.00
2022-08-23T18:29:51.731Z,25.00
2022-08-23T18:32:20.699Z,24.90
2022-08-23T18:34:48.590Z,24.90
2022-08-23T18:37:21.722Z,24.80
2022-08-23T18:39:49.873Z,24.70
2022-08-23T18:42:20.968Z,24.70
2022-08-23T18:44:48.982Z,24.60
2022-08-23T18:47:17.158Z,24.50
2022-08-23T18:49:45.129Z,24.50
2022-08-23T18:52:13.401Z,24.40
2022-08-23T18:54:43.308Z,24.30
2022-08-23T18:57:16.161Z,24.20
2022-08-23T18:59:44.387Z,24.20
2022-08-23T19:02:12.468Z,24.20
2022-08-23T19:04:40.383Z,24.10
2022-08-23T19:07:08.485Z,24.10
2022-08-23T19:09:36.907Z,24.10
2022-08-23T19:12:08.325Z,24.00
2022-08-23T19:14:36.391Z,24.00
2022-08-23T19:17:04.790Z,24.00
2022-08-23T19:19:34.349Z,24.00
2022-08-23T19:22:03.421Z,23.90
2022-08-23T19:24:31.868Z,23.90
2022-08-23T19:26:59.867Z,23.90
2022-08-23T19:29:29.058Z,23.80
2022-08-23T19:32:02.848Z,23.80
2022-08-23T19:34:31.003Z,23.80
2022-08-23T19:37:01.510Z,23.70
2022-08-23T19:39:30.361Z,23.70
2022-08-23T19:41:59.009Z,23.60
2022-08-23T19:44:31.217Z,23.60
2022-08-23T19:47:00.878Z,23.60
2022-08-23T19:49:29.011Z,23.50
2022-08-23T19:51:56.919Z,23.50
2022-08-23T19:54:26.008Z,23.50
2022-08-23T19:56:57.529Z,23.40
2022-08-23T19:59:33.243Z,23.40
2022-08-23T20:02:01.865Z,23.30
2022-08-23T20:04:31.597Z,23.30
2022-08-23T20:07:00.756Z,23.30
2022-08-23T20:09:30.389Z,23.20
2022-08-23T20:11:59.340Z,23.20
2022-08-23T20:14:31.230Z,23.20
2022-08-23T20:17:03.236Z,23.10
2022-08-23T20:19:31.409Z,23.10
2022-08-23T20:22:20.256Z,23.00
2022-08-23T20:24:52.095Z,23.00
2022-08-23T20:27:25.421Z,23.00
2022-08-23T20:29:59.818Z,23.00
2022-08-23T20:32:29.421Z,22.90
2022-08-23T20:35:00.605Z,22.90
2022-08-23T20:37:29.150Z,22.90
2022-08-23T20:39:57.469Z,22.90
2022-08-23T20:42:26.012Z,22.80
2022-08-23T20:44:53.934Z,22.80
2022-08-23T20:47:22.638Z,22.80
2022-08-23T20:49:52.066Z,22.70
2022-08-23T20:52:22.180Z,22.70
2022-08-23T20:54:58.802Z,22.70
2022-08-23T20:57:28.672Z,22.70
2022-08-23T21:00:05.656Z,22.60
2022-08-23T21:02:33.491Z,22.60
2022-08-23T21:05:06.412Z,22.60
2022-08-23T21:07:36.834Z,22.60
2022-08-23T21:10:05.490Z,22.60
2022-08-23T21:12:33.272Z,22.50
2022-08-23T21:15:01.161Z,22.50
2022-08-23T21:17:29.007Z,22.50
2022-08-23T21:19:57.110Z,22.50
2022-08-23T21:22:32.008Z,22.50
2022-08-23T21:25:00.319Z,22.50
2022-08-23T21:27:28.400Z,22.50
2022-08-23T21:29:56.231Z,22.40
2022-08-23T21:32:24.092Z,22.40
2022-08-23T21:34:52.140Z,22.40
2022-08-23T21:37:20.146Z,22.40
2022-08-23T21:39:50.997Z,22.30
2022-08-23T21:42:23.833Z,22.30
2022-08-23T21:44:52.612Z,22.30
2022-08-23T21:47:20.935Z,22.30
2022-08-23T21:49:48.949Z,22.30
2022-08-23T21:52:17.016Z,22.20
2022-08-23T21:54:46.327Z,22.20
2022-08-23T21:57:21.107Z,22.20
2022-08-23T21:59:49.496Z,22.10
2022-08-23T22:02:17.557Z,22.10
2022-08-23T22:04:49.152Z,22.10
2022-08-23T22:07:17.185Z,22.10
2022-08-23T22:09:46.160Z,22.10
2022-08-23T22:12:15.812Z,22.00
2022-08-23T22:14:43.707Z,22.00
2022-08-23T22:17:11.772Z,22.00
2022-08-23T22:19:39.678Z,21.90
2022-08-23T22:22:07.676Z,21.90
2022-08-23T22:24:35.691Z,21.90
2022-08-23T22:27:03.566Z,21.90
2022-08-23T22:29:32.826Z,21.90
2022-08-23T22:32:00.919Z,21.80
2022-08-23T22:34:28.804Z,21.80
2022-08-23T22:36:56.787Z,21.70
2022-08-23T22:39:25.313Z,21.70
2022-08-23T22:41:55.654Z,21.70
2022-08-23T22:44:23.613Z,21.60
2022-08-23T22:46:55.969Z,21.70
2022-08-23T22:49:23.800Z,21.60
2022-08-23T22:51:55.282Z,21.60
2022-08-23T22:54:24.732Z,21.50
2022-08-23T22:56:53.979Z,21.50
2022-08-23T22:59:27.614Z,21.40
2022-08-23T23:02:05.340Z,21.40
2022-08-23T23:04:33.878Z,21.40
2022-08-23T23:07:01.819Z,21.40
2022-08-23T23:09:29.992Z,21.40
2022-08-23T23:11:57.874Z,21.30
2022-08-23T23:14:25.693Z,21.30
2022-08-23T23:16:54.147Z,21.30
2022-08-23T23:19:41.195Z,21.30
2022-08-23T23:22:10.720Z,21.20
2022-08-23T23:24:40.772Z,21.20
2022-08-23T23:27:09.264Z,21.20
2022-08-23T23:29:38.473Z,21.20
2022-08-23T23:32:06.823Z,21.10
2022-08-23T23:34:37.979Z,21.10
2022-08-23T23:37:06.217Z,21.10
2022-08-23T23:39:34.546Z,21.10
2022-08-23T23:42:02.439Z,21.10
2022-08-23T23:44:31.013Z,21.00
2022-08-23T23:47:00.531Z,21.00
2022-08-23T23:49:32.204Z,20.90
2022-08-23T23:52:04.469Z,20.90
2022-08-23T23:54:33.966Z,20.80
2022-08-23T23:57:02.331Z,20.80
2022-08-23T23:59:30.474Z,20.80
